sensor_id;sensor_type;location;lat;lon;timestamp;pressure;altitude;pressure_sealevel;temperature;humidity
16481;BME280;44634;54.110;12.138;2022-09-02T00:01:22;101889.25;;;14.74;100.00
16481;BME280;44634;54.110;12.138;2022-09-02T00:03:53;101894.44;;;14.66;100.00
16481;BME280;44634;54.110;12.138;2022-09-02T00:06:21;101903.47;;;14.23;100.00
16481;BME280;44634;54.110;12.138;2022-09-02T00:08:51;101890.66;;;14.68;100.00
16481;BME280;44634;54.110;12.138;2022-09-02T00:11:21;101906.13;;;14.84;100.00
16481;BME280;44634;54.110;12.138;2022-09-02T00:13:50;101922.31;;;14.71;100.00
16481;BME280;44634;54.110;12.138;2022-09-02T00:16:19;101916.03;;;14.72;100.00
16481;BME280;44634;54.110;12.138;2022-09-02T00:18:49;101917.13;;;14.70;100.00
16481;BME280;44634;54.110;12.138;2022-09-02T00:21:18;101899.06;;;14.64;100.00
16481;BME280;44634;54.110;12.138;2022-09-02T00:23:48;101912.75;;;14.59;100.00
16481;BME280;44634;54.110;12.138;2022-09-02T00:26:18;101896.81;;;14.38;100.00
16481;BME280;44634;54.110;12.138;2022-09-02T00:28:46;101870.03;;;14.51;100.00
16481;BME280;44634;54.110;12.138;2022-09-02T00:31:22;101867.72;;;14.96;100.00
16481;BME280;44634;54.110;12.138;2022-09-02T00:33:51;101899.81;;;14.85;100.00
16481;BME280;44634;54.110;12.138;2022-09-02T00:36:19;101893.97;;;14.61;100.00
16481;BME280;44634;54.110;12.138;2022-09-02T00:38:47;101884.53;;;14.77;100.00
16481;BME280;44634;54.110;12.138;2022-09-02T00:41:19;101886.50;;;15.04;100.00
16481;BME280;44634;54.110;12.138;2022-09-02T00:43:50;101921.41;;;14.92;100.00
16481;BME280;44634;54.110;12.138;2022-09-02T00:46:20;101908.50;;;14.87;100.00
16481;BME280;44634;54.110;12.138;2022-09-02T00:48:55;101898.69;;;14.78;100.00
16481;BME280;44634;54.110;12.138;2022-09-02T00:51:23;101889.69;;;14.69;100.00
16481;BME280;44634;54.110;12.138;2022-09-02T00:53:53;101892.66;;;14.76;100.00
16481;BME280;44634;54.110;12.138;2022-09-02T00:56:25;101896.91;;;14.48;100.00
16481;BME280;44634;54.110;12.138;2022-09-02T00:58:54;101863.75;;;14.62;100.00
16481;BME280;44634;54.110;12.138;2022-09-02T01:01:23;101883.22;;;14.72;100.00
16481;BME280;44634;54.110;12.138;2022-09-02T01:03:53;101884.66;;;14.85;100.00
16481;BME280;44634;54.110;12.138;2022-09-02T01:06:23;101895.94;;;14.58;100.00
16481;BME280;44634;54.110;12.138;2022-09-02T01:08:59;101875.13;;;14.33;100.00
16481;BME280;44634;54.110;12.138;2022-09-02T01:11:36;101872.13;;;14.26;100.00
16481;BME280;44634;54.110;12.138;2022-09-02T01:14:04;101845.53;;;14.67;100.00
16481;BME280;44634;54.110;12.138;2022-09-02T01:16:36;101846.78;;;14.22;100.00
16481;BME280;44634;54.110;12.138;2022-09-02T01:19:11;101855.59;;;14.53;100.00
16481;BME280;44634;54.110;12.138;2022-09-02T01:21:47;101845.84;;;14.83;100.00
16481;BME280;44634;54.110;12.138;2022-09-02T01:24:15;101863.47;;;14.65;100.00
16481;BME280;44634;54.110;12.138;2022-09-02T01:26:44;101843.00;;;14.25;100.00
16481;BME280;44634;54.110;12.138;2022-09-02T01:29:11;101827.16;;;14.54;100.00
16481;BME280;44634;54.110;12.138;2022-09-02T01:31:41;101836.41;;;14.19;100.00
16481;BME280;44634;54.110;12.138;2022-09-02T01:34:09;101823.50;;;14.15;100.00
16481;BME280;44634;54.110;12.138;2022-09-02T01:36:39;101820.59;;;14.27;100.00
16481;BME280;44634;54.110;12.138;2022-09-02T01:39:11;101828.69;;;14.16;100.00
16481;BME280;44634;54.110;12.138;2022-09-02T01:41:39;101822.53;;;14.56;100.00
16481;BME280;44634;54.110;12.138;2022-09-02T01:44:07;101821.59;;;14.26;100.00
16481;BME280;44634;54.110;12.138;2022-09-02T01:46:35;101834.09;;;14.76;100.00
16481;BME280;44634;54.110;12.138;2022-09-02T01:49:04;101837.25;;;14.60;100.00
16481;BME280;44634;54.110;12.138;2022-09-02T01:51:32;101846.81;;;14.02;100.00
16481;BME280;44634;54.110;12.138;2022-09-02T01:53:59;101815.00;;;13.90;100.00
16481;BME280;44634;54.110;12.138;2022-09-02T01:56:29;101800.13;;;13.88;100.00
16481;BME280;44634;54.110;12.138;2022-09-02T01:58:57;101791.84;;;14.12;100.00
16481;BME280;44634;54.110;12.138;2022-09-02T02:01:24;101790.59;;;14.16;100.00
16481;BME280;44634;54.110;12.138;2022-09-02T02:03:52;101809.28;;;13.64;100.00
16481;BME280;44634;54.110;12.138;2022-09-02T02:06:21;101790.81;;;14.03;100.00
16481;BME280;44634;54.110;12.138;2022-09-02T02:08:49;101794.75;;;13.99;100.00
16481;BME280;44634;54.110;12.138;2022-09-02T02:11:18;101789.13;;;13.92;100.00
16481;BME280;44634;54.110;12.138;2022-09-02T02:13:48;101790.72;;;14.05;100.00
16481;BME280;44634;54.110;12.138;2022-09-02T02:16:16;101797.78;;;14.25;100.00
16481;BME280;44634;54.110;12.138;2022-09-02T02:18:44;101812.78;;;13.95;100.00
16481;BME280;44634;54.110;12.138;2022-09-02T02:21:11;101803.16;;;13.74;100.00
16481;BME280;44634;54.110;12.138;2022-09-02T02:23:39;101796.75;;;13.76;100.00
16481;BME280;44634;54.110;12.138;2022-09-02T02:26:07;101787.66;;;14.09;100.00
16481;BME280;44634;54.110;12.138;2022-09-02T02:28:35;101801.22;;;14.16;100.00
16481;BME280;44634;54.110;12.138;2022-09-02T02:31:05;101795.56;;;13.90;100.00
16481;BME280;44634;54.110;12.138;2022-09-02T02:33:33;101790.00;;;14.03;100.00
16481;BME280;44634;54.110;12.138;2022-09-02T02:36:03;101803.41;;;14.01;100.00
16481;BME280;44634;54.110;12.138;2022-09-02T02:38:32;101794.88;;;13.67;100.00
16481;BME280;44634;54.110;12.138;2022-09-02T02:41:00;101780.47;;;13.69;100.00
16481;BME280;44634;54.110;12.138;2022-09-02T02:43:32;101775.13;;;13.18;100.00
16481;BME280;44634;54.110;12.138;2022-09-02T02:46:00;101762.47;;;13.52;100.00
16481;BME280;44634;54.110;12.138;2022-09-02T02:48:29;101765.00;;;13.75;100.00
16481;BME280;44634;54.110;12.138;2022-09-02T02:50:57;101775.13;;;13.60;100.00
16481;BME280;44634;54.110;12.138;2022-09-02T02:53:25;101766.56;;;13.56;100.00
16481;BME280;44634;54.110;12.138;2022-09-02T02:55:55;101758.84;;;13.53;100.00
16481;BME280;44634;54.110;12.138;2022-09-02T02:58:22;101764.13;;;13.23;100.00
16481;BME280;44634;54.110;12.138;2022-09-02T03:00:51;101764.09;;;13.44;100.00
16481;BME280;44634;54.110;12.138;2022-09-02T03:03:18;101768.78;;;13.51;100.00
16481;BME280;44634;54.110;12.138;2022-09-02T03:05:49;101767.09;;;12.97;100.00
16481;BME280;44634;54.110;12.138;2022-09-02T03:08:18;101772.28;;;13.31;100.00
16481;BME280;44634;54.110;12.138;2022-09-02T03:10:48;101782.19;;;13.50;100.00
16481;BME280;44634;54.110;12.138;2022-09-02T03:13:20;101796.81;;;13.65;100.00
16481;BME280;44634;54.110;12.138;2022-09-02T03:15:48;101790.50;;;13.03;100.00
16481;BME280;44634;54.110;12.138;2022-09-02T03:18:16;101779.69;;;13.16;100.00
16481;BME280;44634;54.110;12.138;2022-09-02T03:20:44;101776.00;;;13.07;100.00
16481;BME280;44634;54.110;12.138;2022-09-02T03:23:14;101786.75;;;13.06;100.00
16481;BME280;44634;54.110;12.138;2022-09-02T03:25:44;101790.06;;;12.87;100.00
16481;BME280;44634;54.110;12.138;2022-09-02T03:28:12;101771.09;;;13.03;100.00
16481;BME280;44634;54.110;12.138;2022-09-02T03:30:41;101773.78;;;12.92;100.00
16481;BME280;44634;54.110;12.138;2022-09-02T03:33:09;101767.81;;;12.99;100.00
16481;BME280;44634;54.110;12.138;2022-09-02T03:35:38;101766.22;;;13.08;100.00
16481;BME280;44634;54.110;12.138;2022-09-02T03:38:07;101767.81;;;12.99;100.00
16481;BME280;44634;54.110;12.138;2022-09-02T03:40:37;101761.09;;;13.16;100.00
16481;BME280;44634;54.110;12.138;2022-09-02T03:43:05;101757.16;;;13.10;100.00
16481;BME280;44634;54.110;12.138;2022-09-02T03:45:33;101755.38;;;13.32;100.00
16481;BME280;44634;54.110;12.138;2022-09-02T03:48:01;101773.41;;;13.59;100.00
16481;BME280;44634;54.110;12.138;2022-09-02T03:50:32;101786.59;;;13.39;100.00
16481;BME280;44634;54.110;12.138;2022-09-02T03:53:02;101776.41;;;13.24;100.00
16481;BME280;44634;54.110;12.138;2022-09-02T03:55:31;101769.84;;;13.07;100.00
16481;BME280;44634;54.110;12.138;2022-09-02T03:58:00;101765.94;;;13.11;100.00
16481;BME280;44634;54.110;12.138;2022-09-02T04:00:35;101758.69;;;12.92;100.00
16481;BME280;44634;54.110;12.138;2022-09-02T04:03:04;101751.44;;;12.94;100.00
16481;BME280;44634;54.110;12.138;2022-09-02T04:05:32;101750.72;;;13.24;100.00
16481;BME280;44634;54.110;12.138;2022-09-02T04:08:00;101767.03;;;13.20;100.00
16481;BME280;44634;54.110;12.138;2022-09-02T04:10:28;101767.72;;;13.43;100.00
16481;BME280;44634;54.110;12.138;2022-09-02T04:12:56;101788.16;;;13.10;100.00
16481;BME280;44634;54.110;12.138;2022-09-02T04:15:25;101766.41;;;12.95;100.00
16481;BME280;44634;54.110;12.138;2022-09-02T04:17:53;101759.09;;;12.88;100.00
16481;BME280;44634;54.110;12.138;2022-09-02T04:20:22;101750.28;;;13.08;100.00
16481;BME280;44634;54.110;12.138;2022-09-02T04:22:50;101752.19;;;13.38;100.00
16481;BME280;44634;54.110;12.138;2022-09-02T04:25:18;101753.03;;;13.38;100.00
16481;BME280;44634;54.110;12.138;2022-09-02T04:27:53;101757.94;;;13.64;100.00
16481;BME280;44634;54.110;12.138;2022-09-02T04:30:20;101780.53;;;13.58;100.00
16481;BME280;44634;54.110;12.138;2022-09-02T04:32:52;101780.31;;;13.40;100.00
16481;BME280;44634;54.110;12.138;2022-09-02T04:35:19;101775.13;;;13.18;100.00
16481;BME280;44634;54.110;12.138;2022-09-02T04:37:47;101756.31;;;13.10;100.00
16481;BME280;44634;54.110;12.138;2022-09-02T04:40:15;101756.03;;;12.92;100.00
16481;BME280;44634;54.110;12.138;2022-09-02T04:42:43;101747.63;;;13.08;100.00
16481;BME280;44634;54.110;12.138;2022-09-02T04:45:12;101750.38;;;13.18;100.00
16481;BME280;44634;54.110;12.138;2022-09-02T04:47:40;101752.94;;;13.08;100.00
16481;BME280;44634;54.110;12.138;2022-09-02T04:50:12;101750.25;;;12.87;100.00
16481;BME280;44634;54.110;12.138;2022-09-02T04:52:40;101750.84;;;12.91;100.00
16481;BME280;44634;54.110;12.138;2022-09-02T04:55:08;101745.81;;;13.08;100.00
16481;BME280;44634;54.110;12.138;2022-09-02T04:57:36;101749.19;;;12.90;100.00
16481;BME280;44634;54.110;12.138;2022-09-02T05:00:06;101748.75;;;13.05;100.00
16481;BME280;44634;54.110;12.138;2022-09-02T05:02:35;101750.13;;;13.21;100.00
16481;BME280;44634;54.110;12.138;2022-09-02T05:05:03;101750.38;;;13.18;100.00
16481;BME280;44634;54.110;12.138;2022-09-02T05:07:34;101760.94;;;13.29;100.00
16481;BME280;44634;54.110;12.138;2022-09-02T05:10:03;101760.53;;;12.80;100.00
16481;BME280;44634;54.110;12.138;2022-09-02T05:12:32;101758.59;;;12.82;100.00
16481;BME280;44634;54.110;12.138;2022-09-02T05:15:01;101757.97;;;12.90;100.00
16481;BME280;44634;54.110;12.138;2022-09-02T05:17:29;101760.69;;;13.00;100.00
16481;BME280;44634;54.110;12.138;2022-09-02T05:19:58;101768.47;;;13.13;100.00
16481;BME280;44634;54.110;12.138;2022-09-02T05:22:26;101783.09;;;13.39;100.00
16481;BME280;44634;54.110;12.138;2022-09-02T05:24:56;101794.03;;;13.66;100.00
16481;BME280;44634;54.110;12.138;2022-09-02T05:27:24;101802.41;;;13.41;100.00
16481;BME280;44634;54.110;12.138;2022-09-02T05:29:55;101807.72;;;13.41;100.00
16481;BME280;44634;54.110;12.138;2022-09-02T05:32:25;101800.72;;;13.61;100.00
16481;BME280;44634;54.110;12.138;2022-09-02T05:34:54;101802.41;;;13.62;100.00
16481;BME280;44634;54.110;12.138;2022-09-02T05:37:22;101791.59;;;13.84;100.00
16481;BME280;44634;54.110;12.138;2022-09-02T05:39:51;101801.09;;;13.56;100.00
16481;BME280;44634;54.110;12.138;2022-09-02T05:42:20;101808.09;;;14.09;100.00
16481;BME280;44634;54.110;12.138;2022-09-02T05:44:48;101805.03;;;13.83;100.00
16481;BME280;44634;54.110;12.138;2022-09-02T05:47:16;101789.53;;;14.28;100.00
16481;BME280;44634;54.110;12.138;2022-09-02T05:49:43;101795.41;;;14.22;100.00
16481;BME280;44634;54.110;12.138;2022-09-02T05:52:12;101820.44;;;14.50;100.00
16481;BME280;44634;54.110;12.138;2022-09-02T05:54:40;101832.84;;;14.40;100.00
16481;BME280;44634;54.110;12.138;2022-09-02T05:57:09;101819.75;;;14.57;100.00
16481;BME280;44634;54.110;12.138;2022-09-02T05:59:40;101799.44;;;14.56;100.00
16481;BME280;44634;54.110;12.138;2022-09-02T06:02:09;101799.19;;;14.98;100.00
16481;BME280;44634;54.110;12.138;2022-09-02T06:04:38;101805.06;;;15.11;100.00
16481;BME280;44634;54.110;12.138;2022-09-02T06:07:06;101812.78;;;15.34;100.00
16481;BME280;44634;54.110;12.138;2022-09-02T06:09:37;101806.91;;;15.21;100.00
16481;BME280;44634;54.110;12.138;2022-09-02T06:12:06;101808.94;;;15.75;100.00
16481;BME280;44634;54.110;12.138;2022-09-02T06:14:34;101811.38;;;15.49;100.00
16481;BME280;44634;54.110;12.138;2022-09-02T06:17:04;101804.47;;;15.56;100.00
16481;BME280;44634;54.110;12.138;2022-09-02T06:19:33;101805.03;;;15.69;100.00
16481;BME280;44634;54.110;12.138;2022-09-02T06:22:02;101830.47;;;16.56;100.00
16481;BME280;44634;54.110;12.138;2022-09-02T06:24:31;101844.81;;;16.27;100.00
16481;BME280;44634;54.110;12.138;2022-09-02T06:26:59;101840.28;;;16.38;100.00
16481;BME280;44634;54.110;12.138;2022-09-02T06:29:27;101854.72;;;16.72;100.00
16481;BME280;44634;54.110;12.138;2022-09-02T06:31:55;101865.06;;;16.85;100.00
16481;BME280;44634;54.110;12.138;2022-09-02T06:34:25;101868.97;;;17.08;100.00
16481;BME280;44634;54.110;12.138;2022-09-02T06:36:53;101902.34;;;17.40;100.00
16481;BME280;44634;54.110;12.138;2022-09-02T06:39:24;101903.78;;;17.34;100.00
16481;BME280;44634;54.110;12.138;2022-09-02T06:41:52;101928.31;;;17.30;100.00
16481;BME280;44634;54.110;12.138;2022-09-02T06:44:21;101937.84;;;17.32;100.00
16481;BME280;44634;54.110;12.138;2022-09-02T06:46:54;101935.25;;;17.58;100.00
16481;BME280;44634;54.110;12.138;2022-09-02T06:49:25;101953.50;;;17.27;100.00
16481;BME280;44634;54.110;12.138;2022-09-02T06:51:54;101962.31;;;17.37;100.00
16481;BME280;44634;54.110;12.138;2022-09-02T06:54:23;101950.47;;;17.22;100.00
16481;BME280;44634;54.110;12.138;2022-09-02T06:56:51;101958.66;;;17.38;100.00
16481;BME280;44634;54.110;12.138;2022-09-02T06:59:19;101962.16;;;17.57;100.00
16481;BME280;44634;54.110;12.138;2022-09-02T07:01:48;101957.28;;;17.52;100.00
16481;BME280;44634;54.110;12.138;2022-09-02T07:04:17;101966.19;;;17.25;100.00
16481;BME280;44634;54.110;12.138;2022-09-02T07:07:05;101988.06;;;17.56;100.00
16481;BME280;44634;54.110;12.138;2022-09-02T07:09:33;101972.28;;;17.35;100.00
16481;BME280;44634;54.110;12.138;2022-09-02T07:12:02;101974.22;;;17.61;100.00
16481;BME280;44634;54.110;12.138;2022-09-02T07:14:35;101979.56;;;17.61;100.00
16481;BME280;44634;54.110;12.138;2022-09-02T07:17:03;101992.28;;;17.94;100.00
16481;BME280;44634;54.110;12.138;2022-09-02T07:19:31;102002.72;;;18.05;100.00
16481;BME280;44634;54.110;12.138;2022-09-02T07:21:59;102012.88;;;18.20;100.00
16481;BME280;44634;54.110;12.138;2022-09-02T07:24:28;102028.66;;;17.87;100.00
16481;BME280;44634;54.110;12.138;2022-09-02T07:26:56;102021.09;;;18.00;100.00
16481;BME280;44634;54.110;12.138;2022-09-02T07:29:24;102028.50;;;18.06;100.00
16481;BME280;44634;54.110;12.138;2022-09-02T07:31:52;102024.66;;;18.79;100.00
16481;BME280;44634;54.110;12.138;2022-09-02T07:34:20;102055.16;;;19.20;100.00
16481;BME280;44634;54.110;12.138;2022-09-02T07:36:48;102086.84;;;18.82;100.00
16481;BME280;44634;54.110;12.138;2022-09-02T07:39:17;102086.50;;;19.19;100.00
16481;BME280;44634;54.110;12.138;2022-09-02T07:41:49;102091.88;;;19.19;100.00
16481;BME280;44634;54.110;12.138;2022-09-02T07:44:18;102089.47;;;19.50;100.00
16481;BME280;44634;54.110;12.138;2022-09-02T07:46:46;102096.75;;;19.66;100.00
16481;BME280;44634;54.110;12.138;2022-09-02T07:49:15;102103.84;;;19.75;100.00
16481;BME280;44634;54.110;12.138;2022-09-02T07:51:49;102108.25;;;20.01;100.00
16481;BME280;44634;54.110;12.138;2022-09-02T07:54:19;102116.44;;;19.07;100.00
16481;BME280;44634;54.110;12.138;2022-09-02T07:56:49;102117.75;;;19.37;100.00
16481;BME280;44634;54.110;12.138;2022-09-02T07:59:17;102116.00;;;19.19;100.00
16481;BME280;44634;54.110;12.138;2022-09-02T08:01:45;102140.94;;;19.88;100.00
16481;BME280;44634;54.110;12.138;2022-09-02T08:04:14;102144.97;;;19.84;100.00
16481;BME280;44634;54.110;12.138;2022-09-02T08:06:44;102144.75;;;19.35;100.00
16481;BME280;44634;54.110;12.138;2022-09-02T08:09:12;102154.22;;;19.21;100.00
16481;BME280;44634;54.110;12.138;2022-09-02T08:11:42;102156.69;;;19.41;100.00
16481;BME280;44634;54.110;12.138;2022-09-02T08:14:14;102179.00;;;19.15;100.00
16481;BME280;44634;54.110;12.138;2022-09-02T08:16:44;102175.06;;;19.61;100.00
16481;BME280;44634;54.110;12.138;2022-09-02T08:19:13;102176.75;;;20.21;100.00
16481;BME280;44634;54.110;12.138;2022-09-02T08:21:40;102171.03;;;20.24;100.00
16481;BME280;44634;54.110;12.138;2022-09-02T08:24:08;102179.78;;;21.16;100.00
16481;BME280;44634;54.110;12.138;2022-09-02T08:26:36;102186.88;;;20.52;100.00
16481;BME280;44634;54.110;12.138;2022-09-02T08:29:04;102191.09;;;20.87;100.00
16481;BME280;44634;54.110;12.138;2022-09-02T08:31:35;102192.75;;;20.79;100.00
16481;BME280;44634;54.110;12.138;2022-09-02T08:34:04;102192.09;;;20.86;100.00
16481;BME280;44634;54.110;12.138;2022-09-02T08:36:32;102193.09;;;20.68;100.00
16481;BME280;44634;54.110;12.138;2022-09-02T08:39:01;102199.84;;;20.56;100.00
16481;BME280;44634;54.110;12.138;2022-09-02T08:41:32;102197.75;;;20.26;100.00
16481;BME280;44634;54.110;12.138;2022-09-02T08:44:04;102197.81;;;20.58;100.00
16481;BME280;44634;54.110;12.138;2022-09-02T08:46:34;102198.66;;;20.42;100.00
16481;BME280;44634;54.110;12.138;2022-09-02T08:49:03;102203.84;;;20.44;100.00
16481;BME280;44634;54.110;12.138;2022-09-02T08:51:37;102194.63;;;20.46;100.00
16481;BME280;44634;54.110;12.138;2022-09-02T08:54:12;102192.72;;;21.20;100.00
16481;BME280;44634;54.110;12.138;2022-09-02T08:56:43;102188.91;;;21.93;100.00
16481;BME280;44634;54.110;12.138;2022-09-02T08:59:11;102194.91;;;21.17;100.00
16481;BME280;44634;54.110;12.138;2022-09-02T09:01:45;102189.88;;;21.30;100.00
16481;BME280;44634;54.110;12.138;2022-09-02T09:04:19;102184.66;;;21.67;100.00
16481;BME280;44634;54.110;12.138;2022-09-02T09:07:07;102186.97;;;21.23;100.00
16481;BME280;44634;54.110;12.138;2022-09-02T09:09:45;102179.03;;;22.62;100.00
16481;BME280;44634;54.110;12.138;2022-09-02T09:12:22;102186.50;;;21.75;100.00
16481;BME280;44634;54.110;12.138;2022-09-02T09:15:01;102185.16;;;21.32;100.00
16481;BME280;44634;54.110;12.138;2022-09-02T09:17:38;102183.97;;;21.34;100.00
16481;BME280;44634;54.110;12.138;2022-09-02T09:20:15;102183.66;;;21.13;100.00
16481;BME280;44634;54.110;12.138;2022-09-02T09:22:47;102182.44;;;22.10;100.00
16481;BME280;44634;54.110;12.138;2022-09-02T09:25:17;102182.56;;;22.63;94.46
16481;BME280;44634;54.110;12.138;2022-09-02T09:27:44;102172.09;;;23.20;91.50
16481;BME280;44634;54.110;12.138;2022-09-02T09:30:12;102177.50;;;23.50;86.67
16481;BME280;44634;54.110;12.138;2022-09-02T09:32:45;102169.53;;;24.50;85.45
16481;BME280;44634;54.110;12.138;2022-09-02T09:35:15;102161.75;;;24.25;81.62
16481;BME280;44634;54.110;12.138;2022-09-02T09:37:45;102160.50;;;24.64;76.32
16481;BME280;44634;54.110;12.138;2022-09-02T09:40:34;102158.00;;;24.62;67.26
16481;BME280;44634;54.110;12.138;2022-09-02T09:43:13;102164.81;;;24.01;75.78
16481;BME280;44634;54.110;12.138;2022-09-02T09:45:42;102155.09;;;25.61;76.71
16481;BME280;44634;54.110;12.138;2022-09-02T09:48:21;102148.34;;;25.92;69.66
16481;BME280;44634;54.110;12.138;2022-09-02T09:51:10;102149.75;;;25.81;65.49
16481;BME280;44634;54.110;12.138;2022-09-02T09:53:38;102157.34;;;24.39;69.85
16481;BME280;44634;54.110;12.138;2022-09-02T09:56:27;102155.66;;;25.15;64.70
16481;BME280;44634;54.110;12.138;2022-09-02T09:58:55;102155.47;;;25.17;66.03
16481;BME280;44634;54.110;12.138;2022-09-02T10:01:26;102150.09;;;24.96;66.96
16481;BME280;44634;54.110;12.138;2022-09-02T10:03:58;102159.19;;;24.88;69.55
16481;BME280;44634;54.110;12.138;2022-09-02T10:06:36;102144.72;;;25.30;64.55
16481;BME280;44634;54.110;12.138;2022-09-02T10:09:06;102148.09;;;25.39;64.72
16481;BME280;44634;54.110;12.138;2022-09-02T10:11:54;102134.69;;;25.24;69.29
16481;BME280;44634;54.110;12.138;2022-09-02T10:14:24;102139.66;;;25.62;62.65
16481;BME280;44634;54.110;12.138;2022-09-02T10:16:59;102132.97;;;25.58;65.13
16481;BME280;44634;54.110;12.138;2022-09-02T10:19:37;102133.41;;;26.35;63.09
16481;BME280;44634;54.110;12.138;2022-09-02T10:22:37;102125.09;;;27.86;51.00
16481;BME280;44634;54.110;12.138;2022-09-02T10:25:29;102130.66;;;26.88;53.66
16481;BME280;44634;54.110;12.138;2022-09-02T10:28:03;102128.09;;;27.78;47.62
16481;BME280;44634;54.110;12.138;2022-09-02T10:30:40;102123.97;;;26.97;52.56
16481;BME280;44634;54.110;12.138;2022-09-02T10:33:21;102127.56;;;26.65;52.01
16481;BME280;44634;54.110;12.138;2022-09-02T10:35:55;102113.28;;;27.22;47.87
16481;BME280;44634;54.110;12.138;2022-09-02T10:38:36;102120.03;;;26.67;49.52
16481;BME280;44634;54.110;12.138;2022-09-02T10:41:23;102123.75;;;25.45;49.95
16481;BME280;44634;54.110;12.138;2022-09-02T10:44:01;102116.50;;;26.53;47.32
16481;BME280;44634;54.110;12.138;2022-09-02T10:46:36;102096.22;;;27.53;46.57
16481;BME280;44634;54.110;12.138;2022-09-02T10:49:12;102094.91;;;27.69;41.92
16481;BME280;44634;54.110;12.138;2022-09-02T10:51:52;102091.38;;;28.25;38.29
16481;BME280;44634;54.110;12.138;2022-09-02T10:54:36;102094.34;;;26.76;46.11
16481;BME280;44634;54.110;12.138;2022-09-02T10:57:08;102103.75;;;26.21;52.65
16481;BME280;44634;54.110;12.138;2022-09-02T10:59:41;102096.44;;;27.45;48.44
16481;BME280;44634;54.110;12.138;2022-09-02T11:02:12;102103.34;;;26.70;48.94
16481;BME280;44634;54.110;12.138;2022-09-02T11:04:46;102091.00;;;27.52;47.13
16481;BME280;44634;54.110;12.138;2022-09-02T11:07:20;102093.31;;;26.71;50.91
16481;BME280;44634;54.110;12.138;2022-09-02T11:09:53;102091.25;;;26.59;46.08
16481;BME280;44634;54.110;12.138;2022-09-02T11:12:28;102095.31;;;27.15;46.31
16481;BME280;44634;54.110;12.138;2022-09-02T11:15:02;102091.25;;;26.59;45.29
16481;BME280;44634;54.110;12.138;2022-09-02T11:17:37;102092.69;;;26.82;42.76
16481;BME280;44634;54.110;12.138;2022-09-02T11:20:12;102084.94;;;26.92;44.59
16481;BME280;44634;54.110;12.138;2022-09-02T11:22:50;102083.91;;;26.80;43.58
16481;BME280;44634;54.110;12.138;2022-09-02T11:25:24;102074.25;;;27.10;46.51
16481;BME280;44634;54.110;12.138;2022-09-02T11:27:58;102071.19;;;27.83;42.54
16481;BME280;44634;54.110;12.138;2022-09-02T11:30:37;102071.00;;;27.33;44.34
16481;BME280;44634;54.110;12.138;2022-09-02T11:33:13;102079.13;;;26.68;46.80
16481;BME280;44634;54.110;12.138;2022-09-02T11:35:42;102071.56;;;28.43;41.69
16481;BME280;44634;54.110;12.138;2022-09-02T11:38:26;102067.25;;;28.04;40.62
16481;BME280;44634;54.110;12.138;2022-09-02T11:41:27;102076.44;;;27.33;39.74
16481;BME280;44634;54.110;12.138;2022-09-02T11:44:13;102071.44;;;27.75;40.60
16481;BME280;44634;54.110;12.138;2022-09-02T11:47:15;102070.09;;;26.88;43.34
16481;BME280;44634;54.110;12.138;2022-09-02T11:50:07;102068.31;;;26.42;47.57
16481;BME280;44634;54.110;12.138;2022-09-02T11:52:52;102069.03;;;27.09;44.77
16481;BME280;44634;54.110;12.138;2022-09-02T11:55:30;102064.97;;;27.31;46.89
16481;BME280;44634;54.110;12.138;2022-09-02T11:58:01;102065.38;;;27.79;42.04
16481;BME280;44634;54.110;12.138;2022-09-02T12:00:31;102068.66;;;26.92;44.02
16481;BME280;44634;54.110;12.138;2022-09-02T12:03:19;102057.63;;;28.08;44.59
16481;BME280;44634;54.110;12.138;2022-09-02T12:06:10;102057.72;;;28.44;41.02
16481;BME280;44634;54.110;12.138;2022-09-02T12:09:00;102050.13;;;28.71;41.84
16481;BME280;44634;54.110;12.138;2022-09-02T12:11:50;102064.44;;;27.03;52.49
16481;BME280;44634;54.110;12.138;2022-09-02T12:17:38;102056.81;;;26.60;48.88
16481;BME280;44634;54.110;12.138;2022-09-02T12:20:08;102050.53;;;27.37;45.34
16481;BME280;44634;54.110;12.138;2022-09-02T12:22:38;102049.97;;;27.67;45.52
16481;BME280;44634;54.110;12.138;2022-09-02T12:25:36;102037.72;;;28.39;39.79
16481;BME280;44634;54.110;12.138;2022-09-02T12:28:15;102026.31;;;29.03;38.26
16481;BME280;44634;54.110;12.138;2022-09-02T12:31:10;102033.53;;;28.11;42.66
16481;BME280;44634;54.110;12.138;2022-09-02T12:33:41;102022.81;;;28.16;42.26
16481;BME280;44634;54.110;12.138;2022-09-02T12:36:44;102026.53;;;27.27;43.10
16481;BME280;44634;54.110;12.138;2022-09-02T12:39:49;102026.03;;;27.44;43.81
16481;BME280;44634;54.110;12.138;2022-09-02T12:42:24;102014.28;;;28.74;40.02
16481;BME280;44634;54.110;12.138;2022-09-02T12:45:02;102019.16;;;27.79;41.79
16481;BME280;44634;54.110;12.138;2022-09-02T12:47:42;102030.31;;;27.26;44.45
16481;BME280;44634;54.110;12.138;2022-09-02T12:50:20;102019.03;;;27.68;43.47
16481;BME280;44634;54.110;12.138;2022-09-02T12:52:51;102003.34;;;28.81;39.85
16481;BME280;44634;54.110;12.138;2022-09-02T12:55:23;101999.44;;;29.25;36.51
16481;BME280;44634;54.110;12.138;2022-09-02T12:57:54;101999.69;;;29.54;37.41
16481;BME280;44634;54.110;12.138;2022-09-02T13:00:31;101998.16;;;29.58;36.12